sensor_id;sensor_type;location;lat;lon;timestamp;P1;durP1;ratioP1;P2;durP2;ratioP2
21681;SDS011;11002;48.256;10.084;2022-09-13T00:01:08;0.68;;;0.60;;
21681;SDS011;11002;48.256;10.084;2022-09-13T00:03:37;0.65;;;0.65;;
21681;SDS011;11002;48.256;10.084;2022-09-13T00:06:08;0.75;;;0.75;;
21681;SDS011;11002;48.256;10.084;2022-09-13T00:08:36;0.77;;;0.60;;
21681;SDS011;11002;48.256;10.084;2022-09-13T00:11:04;0.60;;;0.60;;
21681;SDS011;11002;48.256;10.084;2022-09-13T00:13:32;0.73;;;0.60;;
21681;SDS011;11002;48.256;10.084;2022-09-13T00:15:59;0.65;;;0.60;;
21681;SDS011;11002;48.256;10.084;2022-09-13T00:18:29;0.70;;;0.70;;
21681;SDS011;11002;48.256;10.084;2022-09-13T00:21:05;0.90;;;0.60;;
21681;SDS011;11002;48.256;10.084;2022-09-13T00:23:33;1.10;;;0.63;;
21681;SDS011;11002;48.256;10.084;2022-09-13T00:26:02;0.50;;;0.50;;
21681;SDS011;11002;48.256;10.084;2022-09-13T00:28:30;0.75;;;0.75;;
21681;SDS011;11002;48.256;10.084;2022-09-13T00:30:58;0.60;;;0.60;;
21681;SDS011;11002;48.256;10.084;2022-09-13T00:33:26;0.98;;;0.70;;
21681;SDS011;11002;48.256;10.084;2022-09-13T00:35:53;0.80;;;0.80;;
21681;SDS011;11002;48.256;10.084;2022-09-13T00:38:22;0.70;;;0.60;;
21681;SDS011;11002;48.256;10.084;2022-09-13T00:40:50;0.80;;;0.80;;
21681;SDS011;11002;48.256;10.084;2022-09-13T00:43:18;0.60;;;0.60;;
21681;SDS011;11002;48.256;10.084;2022-09-13T00:45:47;0.63;;;0.63;;
21681;SDS011;11002;48.256;10.084;2022-09-13T00:48:16;0.60;;;0.60;;
21681;SDS011;11002;48.256;10.084;2022-09-13T00:50:47;1.00;;;0.73;;
21681;SDS011;11002;48.256;10.084;2022-09-13T00:53:18;0.70;;;0.70;;
21681;SDS011;11002;48.256;10.084;2022-09-13T00:55:52;0.60;;;0.55;;
21681;SDS011;11002;48.256;10.084;2022-09-13T00:58:24;0.63;;;0.63;;
21681;SDS011;11002;48.256;10.084;2022-09-13T01:00:55;1.25;;;0.70;;
21681;SDS011;11002;48.256;10.084;2022-09-13T01:03:23;0.55;;;0.55;;
21681;SDS011;11002;48.256;10.084;2022-09-13T01:05:53;0.70;;;0.70;;
21681;SDS011;11002;48.256;10.084;2022-09-13T01:08:23;0.98;;;0.55;;
21681;SDS011;11002;48.256;10.084;2022-09-13T01:10:55;0.70;;;0.70;;
21681;SDS011;11002;48.256;10.084;2022-09-13T01:13:24;0.65;;;0.55;;
21681;SDS011;11002;48.256;10.084;2022-09-13T01:15:54;0.57;;;0.57;;
21681;SDS011;11002;48.256;10.084;2022-09-13T01:18:21;0.50;;;0.50;;
21681;SDS011;11002;48.256;10.084;2022-09-13T01:21:02;0.68;;;0.68;;
21681;SDS011;11002;48.256;10.084;2022-09-13T01:24:07;0.40;;;0.40;;
21681;SDS011;11002;48.256;10.084;2022-09-13T01:26:58;0.55;;;0.55;;
21681;SDS011;11002;48.256;10.084;2022-09-13T01:30:00;0.50;;;0.50;;
21681;SDS011;11002;48.256;10.084;2022-09-13T01:32:33;0.80;;;0.70;;
21681;SDS011;11002;48.256;10.084;2022-09-13T01:35:21;1.38;;;0.80;;
21681;SDS011;11002;48.256;10.084;2022-09-13T01:37:55;1.98;;;0.70;;
21681;SDS011;11002;48.256;10.084;2022-09-13T01:40:33;2.45;;;0.70;;
21681;SDS011;11002;48.256;10.084;2022-09-13T01:43:12;0.60;;;0.60;;
21681;SDS011;11002;48.256;10.084;2022-09-13T01:45:52;0.80;;;0.80;;
21681;SDS011;11002;48.256;10.084;2022-09-13T01:48:32;0.60;;;0.60;;
21681;SDS011;11002;48.256;10.084;2022-09-13T01:51:09;0.63;;;0.63;;
21681;SDS011;11002;48.256;10.084;2022-09-13T01:53:46;0.38;;;0.38;;
21681;SDS011;11002;48.256;10.084;2022-09-13T01:56:19;0.98;;;0.77;;
21681;SDS011;11002;48.256;10.084;2022-09-13T02:01:22;0.60;;;0.60;;
21681;SDS011;11002;48.256;10.084;2022-09-13T02:03:57;0.60;;;0.60;;
21681;SDS011;11002;48.256;10.084;2022-09-13T02:06:29;0.57;;;0.57;;
21681;SDS011;11002;48.256;10.084;2022-09-13T02:09:00;0.70;;;0.50;;
21681;SDS011;11002;48.256;10.084;2022-09-13T02:14:03;0.50;;;0.50;;
21681;SDS011;11002;48.256;10.084;2022-09-13T02:16:37;0.60;;;0.60;;
21681;SDS011;11002;48.256;10.084;2022-09-13T02:19:09;1.47;;;0.60;;
21681;SDS011;11002;48.256;10.084;2022-09-13T02:21:40;0.63;;;0.63;;
21681;SDS011;11002;48.256;10.084;2022-09-13T02:24:12;0.60;;;0.60;;
21681;SDS011;11002;48.256;10.084;2022-09-13T02:26:44;0.95;;;0.60;;
21681;SDS011;11002;48.256;10.084;2022-09-13T02:29:14;0.43;;;0.43;;
21681;SDS011;11002;48.256;10.084;2022-09-13T02:31:47;1.27;;;0.50;;
21681;SDS011;11002;48.256;10.084;2022-09-13T02:34:19;0.70;;;0.60;;
21681;SDS011;11002;48.256;10.084;2022-09-13T02:36:49;0.55;;;0.55;;
21681;SDS011;11002;48.256;10.084;2022-09-13T02:39:19;0.60;;;0.60;;
21681;SDS011;11002;48.256;10.084;2022-09-13T02:41:51;0.50;;;0.50;;
21681;SDS011;11002;48.256;10.084;2022-09-13T02:44:23;0.50;;;0.50;;
21681;SDS011;11002;48.256;10.084;2022-09-13T02:47:03;1.15;;;0.57;;
21681;SDS011;11002;48.256;10.084;2022-09-13T02:49:40;1.48;;;0.70;;
21681;SDS011;11002;48.256;10.084;2022-09-13T02:52:18;0.73;;;0.73;;
21681;SDS011;11002;48.256;10.084;2022-09-13T02:54:55;1.17;;;0.60;;
21681;SDS011;11002;48.256;10.084;2022-09-13T02:57:26;0.60;;;0.60;;
21681;SDS011;11002;48.256;10.084;2022-09-13T02:59:57;2.67;;;0.55;;
21681;SDS011;11002;48.256;10.084;2022-09-13T03:02:27;0.68;;;0.52;;
21681;SDS011;11002;48.256;10.084;2022-09-13T03:04:57;0.70;;;0.70;;
21681;SDS011;11002;48.256;10.084;2022-09-13T03:07:25;0.63;;;0.57;;
21681;SDS011;11002;48.256;10.084;2022-09-13T03:09:53;0.80;;;0.70;;
21681;SDS011;11002;48.256;10.084;2022-09-13T03:12:30;0.93;;;0.55;;
21681;SDS011;11002;48.256;10.084;2022-09-13T03:15:11;1.75;;;0.40;;
21681;SDS011;11002;48.256;10.084;2022-09-13T03:17:51;0.85;;;0.60;;
21681;SDS011;11002;48.256;10.084;2022-09-13T03:20:30;0.55;;;0.55;;
21681;SDS011;11002;48.256;10.084;2022-09-13T03:23:12;0.70;;;0.68;;
21681;SDS011;11002;48.256;10.084;2022-09-13T03:26:00;1.02;;;0.80;;
21681;SDS011;11002;48.256;10.084;2022-09-13T03:28:39;0.73;;;0.50;;
21681;SDS011;11002;48.256;10.084;2022-09-13T03:31:16;0.73;;;0.60;;
21681;SDS011;11002;48.256;10.084;2022-09-13T03:33:52;0.47;;;0.40;;
21681;SDS011;11002;48.256;10.084;2022-09-13T03:36:24;0.60;;;0.60;;
21681;SDS011;11002;48.256;10.084;2022-09-13T03:38:59;0.63;;;0.60;;
21681;SDS011;11002;48.256;10.084;2022-09-13T03:41:33;0.50;;;0.50;;
21681;SDS011;11002;48.256;10.084;2022-09-13T03:44:07;0.60;;;0.60;;
21681;SDS011;11002;48.256;10.084;2022-09-13T03:46:39;0.50;;;0.50;;
21681;SDS011;11002;48.256;10.084;2022-09-13T03:49:10;0.60;;;0.60;;
21681;SDS011;11002;48.256;10.084;2022-09-13T03:51:40;0.63;;;0.60;;
21681;SDS011;11002;48.256;10.084;2022-09-13T03:54:11;0.70;;;0.70;;
21681;SDS011;11002;48.256;10.084;2022-09-13T03:56:42;0.52;;;0.52;;
21681;SDS011;11002;48.256;10.084;2022-09-13T03:59:10;0.70;;;0.70;;
21681;SDS011;11002;48.256;10.084;2022-09-13T04:01:37;0.60;;;0.60;;
21681;SDS011;11002;48.256;10.084;2022-09-13T04:04:04;0.70;;;0.60;;
21681;SDS011;11002;48.256;10.084;2022-09-13T04:06:33;1.38;;;0.70;;
21681;SDS011;11002;48.256;10.084;2022-09-13T04:09:00;0.90;;;0.70;;
21681;SDS011;11002;48.256;10.084;2022-09-13T04:11:28;1.23;;;0.80;;
21681;SDS011;11002;48.256;10.084;2022-09-13T04:13:57;0.73;;;0.70;;
21681;SDS011;11002;48.256;10.084;2022-09-13T04:16:24;0.65;;;0.65;;
21681;SDS011;11002;48.256;10.084;2022-09-13T04:18:51;0.50;;;0.50;;
21681;SDS011;11002;48.256;10.084;2022-09-13T04:21:19;0.50;;;0.50;;
21681;SDS011;11002;48.256;10.084;2022-09-13T04:23:49;1.77;;;0.65;;
21681;SDS011;11002;48.256;10.084;2022-09-13T04:26:17;0.60;;;0.55;;
21681;SDS011;11002;48.256;10.084;2022-09-13T04:28:44;0.50;;;0.50;;
21681;SDS011;11002;48.256;10.084;2022-09-13T04:31:11;2.00;;;0.90;;
21681;SDS011;11002;48.256;10.084;2022-09-13T04:33:39;2.65;;;1.20;;
21681;SDS011;11002;48.256;10.084;2022-09-13T04:36:06;2.45;;;1.27;;
21681;SDS011;11002;48.256;10.084;2022-09-13T04:38:33;1.15;;;1.05;;
21681;SDS011;11002;48.256;10.084;2022-09-13T04:41:03;1.60;;;1.20;;
21681;SDS011;11002;48.256;10.084;2022-09-13T04:43:31;2.85;;;1.45;;
21681;SDS011;11002;48.256;10.084;2022-09-13T04:45:58;5.25;;;1.35;;
21681;SDS011;11002;48.256;10.084;2022-09-13T04:48:26;2.13;;;1.30;;
21681;SDS011;11002;48.256;10.084;2022-09-13T04:50:59;4.40;;;1.33;;
21681;SDS011;11002;48.256;10.084;2022-09-13T04:53:29;1.83;;;1.48;;
21681;SDS011;11002;48.256;10.084;2022-09-13T04:55:59;4.40;;;1.25;;
21681;SDS011;11002;48.256;10.084;2022-09-13T04:58:28;2.85;;;1.63;;
21681;SDS011;11002;48.256;10.084;2022-09-13T05:00:59;1.65;;;1.30;;
21681;SDS011;11002;48.256;10.084;2022-09-13T05:03:28;2.25;;;1.27;;
21681;SDS011;11002;48.256;10.084;2022-09-13T05:06:02;2.53;;;1.20;;
21681;SDS011;11002;48.256;10.084;2022-09-13T05:08:30;2.00;;;1.30;;
21681;SDS011;11002;48.256;10.084;2022-09-13T05:10:58;4.35;;;1.20;;
21681;SDS011;11002;48.256;10.084;2022-09-13T05:13:25;2.38;;;1.40;;
21681;SDS011;11002;48.256;10.084;2022-09-13T05:15:55;4.72;;;1.27;;
21681;SDS011;11002;48.256;10.084;2022-09-13T05:18:24;2.88;;;1.10;;
21681;SDS011;11002;48.256;10.084;2022-09-13T05:20:52;2.25;;;1.10;;
21681;SDS011;11002;48.256;10.084;2022-09-13T05:23:21;1.35;;;1.23;;
21681;SDS011;11002;48.256;10.084;2022-09-13T05:25:51;1.23;;;0.95;;
21681;SDS011;11002;48.256;10.084;2022-09-13T05:28:19;1.85;;;1.45;;
21681;SDS011;11002;48.256;10.084;2022-09-13T05:30:54;2.50;;;1.17;;
21681;SDS011;11002;48.256;10.084;2022-09-13T05:33:22;1.80;;;1.20;;
21681;SDS011;11002;48.256;10.084;2022-09-13T05:35:50;2.78;;;0.85;;
21681;SDS011;11002;48.256;10.084;2022-09-13T05:38:17;0.80;;;0.80;;
21681;SDS011;11002;48.256;10.084;2022-09-13T05:40:45;1.98;;;0.80;;
21681;SDS011;11002;48.256;10.084;2022-09-13T05:43:13;1.42;;;0.95;;
21681;SDS011;11002;48.256;10.084;2022-09-13T05:45:41;1.80;;;0.80;;
21681;SDS011;11002;48.256;10.084;2022-09-13T05:48:09;1.90;;;1.08;;
21681;SDS011;11002;48.256;10.084;2022-09-13T05:50:36;0.80;;;0.60;;
21681;SDS011;11002;48.256;10.084;2022-09-13T05:53:04;0.90;;;0.75;;
21681;SDS011;11002;48.256;10.084;2022-09-13T05:55:31;2.50;;;0.73;;
21681;SDS011;11002;48.256;10.084;2022-09-13T05:58:00;1.48;;;1.00;;
21681;SDS011;11002;48.256;10.084;2022-09-13T06:00:28;1.27;;;0.90;;
21681;SDS011;11002;48.256;10.084;2022-09-13T06:02:56;0.77;;;0.77;;
21681;SDS011;11002;48.256;10.084;2022-09-13T06:05:24;0.90;;;0.70;;
21681;SDS011;11002;48.256;10.084;2022-09-13T06:07:52;1.48;;;1.00;;
21681;SDS011;11002;48.256;10.084;2022-09-13T06:10:19;1.02;;;0.82;;
21681;SDS011;11002;48.256;10.084;2022-09-13T06:12:46;1.50;;;1.23;;
21681;SDS011;11002;48.256;10.084;2022-09-13T06:15:16;0.98;;;0.88;;
21681;SDS011;11002;48.256;10.084;2022-09-13T06:17:43;1.10;;;1.00;;
21681;SDS011;11002;48.256;10.084;2022-09-13T06:20:12;1.23;;;0.77;;
21681;SDS011;11002;48.256;10.084;2022-09-13T06:22:40;0.98;;;0.90;;
21681;SDS011;11002;48.256;10.084;2022-09-13T06:25:08;1.67;;;0.90;;
21681;SDS011;11002;48.256;10.084;2022-09-13T06:27:35;0.80;;;0.68;;
21681;SDS011;11002;48.256;10.084;2022-09-13T06:30:03;0.68;;;0.63;;
21681;SDS011;11002;48.256;10.084;2022-09-13T06:32:33;1.60;;;0.63;;
21681;SDS011;11002;48.256;10.084;2022-09-13T06:35:00;0.70;;;0.70;;
21681;SDS011;11002;48.256;10.084;2022-09-13T06:37:27;1.25;;;0.85;;
21681;SDS011;11002;48.256;10.084;2022-09-13T06:39:56;0.60;;;0.60;;
21681;SDS011;11002;48.256;10.084;2022-09-13T06:42:23;2.05;;;1.00;;
21681;SDS011;11002;48.256;10.084;2022-09-13T06:44:51;1.17;;;0.85;;
21681;SDS011;11002;48.256;10.084;2022-09-13T06:47:18;2.72;;;0.73;;
21681;SDS011;11002;48.256;10.084;2022-09-13T06:49:45;0.80;;;0.63;;
21681;SDS011;11002;48.256;10.084;2022-09-13T06:52:13;0.70;;;0.65;;
21681;SDS011;11002;48.256;10.084;2022-09-13T06:54:40;0.80;;;0.80;;
21681;SDS011;11002;48.256;10.084;2022-09-13T06:57:09;0.52;;;0.52;;
21681;SDS011;11002;48.256;10.084;2022-09-13T06:59:36;0.60;;;0.60;;
21681;SDS011;11002;48.256;10.084;2022-09-13T07:02:04;0.73;;;0.73;;
21681;SDS011;11002;48.256;10.084;2022-09-13T07:04:31;0.60;;;0.60;;
21681;SDS011;11002;48.256;10.084;2022-09-13T07:06:59;0.50;;;0.50;;
21681;SDS011;11002;48.256;10.084;2022-09-13T07:09:26;2.67;;;0.70;;
21681;SDS011;11002;48.256;10.084;2022-09-13T07:11:54;1.15;;;0.80;;
21681;SDS011;11002;48.256;10.084;2022-09-13T07:14:23;0.77;;;0.68;;
21681;SDS011;11002;48.256;10.084;2022-09-13T07:16:52;0.63;;;0.63;;
21681;SDS011;11002;48.256;10.084;2022-09-13T07:19:20;0.85;;;0.70;;
21681;SDS011;11002;48.256;10.084;2022-09-13T07:21:49;1.67;;;0.70;;
21681;SDS011;11002;48.256;10.084;2022-09-13T07:24:16;2.60;;;0.70;;
21681;SDS011;11002;48.256;10.084;2022-09-13T07:26:44;0.73;;;0.60;;
21681;SDS011;11002;48.256;10.084;2022-09-13T07:29:13;0.90;;;0.82;;
21681;SDS011;11002;48.256;10.084;2022-09-13T07:31:45;0.80;;;0.70;;
21681;SDS011;11002;48.256;10.084;2022-09-13T07:34:14;0.65;;;0.65;;
21681;SDS011;11002;48.256;10.084;2022-09-13T07:36:43;0.95;;;0.52;;
21681;SDS011;11002;48.256;10.084;2022-09-13T07:39:11;0.85;;;0.77;;
21681;SDS011;11002;48.256;10.084;2022-09-13T07:41:39;0.73;;;0.60;;
21681;SDS011;11002;48.256;10.084;2022-09-13T07:44:08;0.70;;;0.70;;
21681;SDS011;11002;48.256;10.084;2022-09-13T07:46:36;0.50;;;0.50;;
21681;SDS011;11002;48.256;10.084;2022-09-13T07:49:05;0.60;;;0.60;;
21681;SDS011;11002;48.256;10.084;2022-09-13T07:51:33;0.60;;;0.60;;
21681;SDS011;11002;48.256;10.084;2022-09-13T07:54:04;1.00;;;0.70;;
21681;SDS011;11002;48.256;10.084;2022-09-13T07:56:36;0.60;;;0.60;;
21681;SDS011;11002;48.256;10.084;2022-09-13T07:59:05;0.88;;;0.80;;
21681;SDS011;11002;48.256;10.084;2022-09-13T08:01:36;0.43;;;0.43;;
21681;SDS011;11002;48.256;10.084;2022-09-13T08:04:07;0.52;;;0.50;;
21681;SDS011;11002;48.256;10.084;2022-09-13T08:06:36;0.60;;;0.60;;
21681;SDS011;11002;48.256;10.084;2022-09-13T08:09:05;0.75;;;0.70;;
21681;SDS011;11002;48.256;10.084;2022-09-13T08:11:34;0.50;;;0.50;;
21681;SDS011;11002;48.256;10.084;2022-09-13T08:14:03;0.82;;;0.55;;
21681;SDS011;11002;48.256;10.084;2022-09-13T08:16:32;1.27;;;0.60;;
21681;SDS011;11002;48.256;10.084;2022-09-13T08:19:00;1.05;;;0.60;;
21681;SDS011;11002;48.256;10.084;2022-09-13T08:21:32;0.55;;;0.55;;
21681;SDS011;11002;48.256;10.084;2022-09-13T08:24:01;0.80;;;0.70;;
21681;SDS011;11002;48.256;10.084;2022-09-13T08:26:29;0.60;;;0.50;;
21681;SDS011;11002;48.256;10.084;2022-09-13T08:28:59;0.63;;;0.50;;
21681;SDS011;11002;48.256;10.084;2022-09-13T08:31:27;0.52;;;0.52;;
21681;SDS011;11002;48.256;10.084;2022-09-13T08:33:55;0.68;;;0.68;;
21681;SDS011;11002;48.256;10.084;2022-09-13T08:36:23;1.25;;;0.70;;
21681;SDS011;11002;48.256;10.084;2022-09-13T08:38:54;0.55;;;0.50;;
21681;SDS011;11002;48.256;10.084;2022-09-13T08:41:30;1.25;;;0.70;;
21681;SDS011;11002;48.256;10.084;2022-09-13T08:44:13;0.65;;;0.65;;
21681;SDS011;11002;48.256;10.084;2022-09-13T08:46:47;0.60;;;0.60;;
21681;SDS011;11002;48.256;10.084;2022-09-13T08:49:17;0.73;;;0.63;;
21681;SDS011;11002;48.256;10.084;2022-09-13T08:51:48;0.77;;;0.60;;
21681;SDS011;11002;48.256;10.084;2022-09-13T08:54:21;0.80;;;0.70;;
21681;SDS011;11002;48.256;10.084;2022-09-13T08:56:50;0.47;;;0.47;;
21681;SDS011;11002;48.256;10.084;2022-09-13T08:59:26;0.90;;;0.70;;
21681;SDS011;11002;48.256;10.084;2022-09-13T09:02:11;0.63;;;0.63;;
21681;SDS011;11002;48.256;10.084;2022-09-13T09:04:48;0.50;;;0.50;;
21681;SDS011;11002;48.256;10.084;2022-09-13T09:07:21;0.50;;;0.50;;
21681;SDS011;11002;48.256;10.084;2022-09-13T09:09:54;0.50;;;0.50;;
21681;SDS011;11002;48.256;10.084;2022-09-13T09:12:30;0.70;;;0.50;;
21681;SDS011;11002;48.256;10.084;2022-09-13T09:15:04;0.63;;;0.50;;
21681;SDS011;11002;48.256;10.084;2022-09-13T09:17:41;0.75;;;0.43;;
21681;SDS011;11002;48.256;10.084;2022-09-13T09:20:22;0.90;;;0.50;;
21681;SDS011;11002;48.256;10.084;2022-09-13T09:22:52;0.70;;;0.52;;
21681;SDS011;11002;48.256;10.084;2022-09-13T09:25:23;0.75;;;0.60;;
21681;SDS011;11002;48.256;10.084;2022-09-13T09:27:51;0.80;;;0.65;;
21681;SDS011;11002;48.256;10.084;2022-09-13T09:30:19;0.50;;;0.50;;
21681;SDS011;11002;48.256;10.084;2022-09-13T09:32:57;0.40;;;0.40;;
21681;SDS011;11002;48.256;10.084;2022-09-13T09:35:43;0.50;;;0.50;;
21681;SDS011;11002;48.256;10.084;2022-09-13T09:38:28;0.63;;;0.63;;
21681;SDS011;11002;48.256;10.084;2022-09-13T09:41:02;0.77;;;0.50;;
21681;SDS011;11002;48.256;10.084;2022-09-13T09:43:32;0.32;;;0.28;;
21681;SDS011;11002;48.256;10.084;2022-09-13T09:46:04;0.80;;;0.60;;
21681;SDS011;11002;48.256;10.084;2022-09-13T09:48:36;0.60;;;0.50;;
21681;SDS011;11002;48.256;10.084;2022-09-13T09:51:08;0.40;;;0.40;;
21681;SDS011;11002;48.256;10.084;2022-09-13T09:53:40;0.82;;;0.60;;
21681;SDS011;11002;48.256;10.084;2022-09-13T09:56:17;1.10;;;0.65;;
21681;SDS011;11002;48.256;10.084;2022-09-13T09:58:50;0.45;;;0.45;;
21681;SDS011;11002;48.256;10.084;2022-09-13T10:01:20;0.60;;;0.50;;
21681;SDS011;11002;48.256;10.084;2022-09-13T10:03:51;0.43;;;0.43;;
21681;SDS011;11002;48.256;10.084;2022-09-13T10:06:24;0.38;;;0.38;;
21681;SDS011;11002;48.256;10.084;2022-09-13T10:08:55;0.40;;;0.40;;
21681;SDS011;11002;48.256;10.084;2022-09-13T10:11:40;0.50;;;0.50;;
21681;SDS011;11002;48.256;10.084;2022-09-13T10:17:04;0.50;;;0.50;;
21681;SDS011;11002;48.256;10.084;2022-09-13T10:19:40;1.30;;;0.70;;
21681;SDS011;11002;48.256;10.084;2022-09-13T10:22:16;0.40;;;0.40;;
21681;SDS011;11002;48.256;10.084;2022-09-13T10:24:43;0.57;;;0.50;;
21681;SDS011;11002;48.256;10.084;2022-09-13T10:30:02;1.08;;;0.60;;
21681;SDS011;11002;48.256;10.084;2022-09-13T10:32:30;1.10;;;0.43;;
21681;SDS011;11002;48.256;10.084;2022-09-13T10:35:00;0.43;;;0.40;;
21681;SDS011;11002;48.256;10.084;2022-09-13T10:37:35;2.78;;;0.60;;
21681;SDS011;11002;48.256;10.084;2022-09-13T10:40:03;0.50;;;0.50;;
21681;SDS011;11002;48.256;10.084;2022-09-13T10:42:35;1.08;;;0.50;;
21681;SDS011;11002;48.256;10.084;2022-09-13T10:45:03;1.05;;;0.70;;
21681;SDS011;11002;48.256;10.084;2022-09-13T10:47:33;0.70;;;0.63;;
21681;SDS011;11002;48.256;10.084;2022-09-13T10:50:10;2.17;;;0.70;;
21681;SDS011;11002;48.256;10.084;2022-09-13T10:52:44;0.82;;;0.45;;
21681;SDS011;11002;48.256;10.084;2022-09-13T10:55:26;0.50;;;0.47;;
21681;SDS011;11002;48.256;10.084;2022-09-13T11:04:11;0.55;;;0.55;;
21681;SDS011;11002;48.256;10.084;2022-09-13T11:07:10;0.70;;;0.40;;
21681;SDS011;11002;48.256;10.084;2022-09-13T11:10:13;0.82;;;0.50;;
21681;SDS011;11002;48.256;10.084;2022-09-13T11:12:49;0.47;;;0.47;;
21681;SDS011;11002;48.256;10.084;2022-09-13T11:15:25;0.90;;;0.43;;
21681;SDS011;11002;48.256;10.084;2022-09-13T11:21:01;2.28;;;0.47;;
21681;SDS011;11002;48.256;10.084;2022-09-13T11:26:28;0.70;;;0.50;;
21681;SDS011;11002;48.256;10.084;2022-09-13T11:29:08;0.82;;;0.52;;
21681;SDS011;11002;48.256;10.084;2022-09-13T11:31:47;0.40;;;0.40;;
21681;SDS011;11002;48.256;10.084;2022-09-13T11:34:28;0.70;;;0.40;;
21681;SDS011;11002;48.256;10.084;2022-09-13T11:37:22;0.45;;;0.35;;
21681;SDS011;11002;48.256;10.084;2022-09-13T11:40:01;0.52;;;0.52;;
21681;SDS011;11002;48.256;10.084;2022-09-13T11:42:42;0.40;;;0.40;;
21681;SDS011;11002;48.256;10.084;2022-09-13T11:45:18;0.40;;;0.40;;
21681;SDS011;11002;48.256;10.084;2022-09-13T11:47:56;0.40;;;0.40;;
21681;SDS011;11002;48.256;10.084;2022-09-13T11:50:56;0.50;;;0.50;;
21681;SDS011;11002;48.256;10.084;2022-09-13T11:53:39;0.52;;;0.40;;
21681;SDS011;11002;48.256;10.084;2022-09-13T11:56:20;0.50;;;0.40;;
21681;SDS011;11002;48.256;10.084;2022-09-13T11:58:53;2.00;;;0.50;;
21681;SDS011;11002;48.256;10.084;2022-09-13T12:01:26;2.00;;;0.60;;
21681;SDS011;11002;48.256;10.084;2022-09-13T12:03:58;1.08;;;0.60;;
21681;SDS011;11002;48.256;10.084;2022-09-13T12:06:30;0.30;;;0.30;;
21681;SDS011;11002;48.256;10.084;2022-09-13T12:11:33;1.85;;;0.38;;
21681;SDS011;11002;48.256;10.084;2022-09-13T12:14:04;0.40;;;0.40;;
21681;SDS011;11002;48.256;10.084;2022-09-13T12:16:37;0.30;;;0.30;;
21681;SDS011;11002;48.256;10.084;2022-09-13T12:19:10;1.17;;;0.30;;
21681;SDS011;11002;48.256;10.084;2022-09-13T12:21:44;0.40;;;0.40;;
21681;SDS011;11002;48.256;10.084;2022-09-13T12:24:15;0.55;;;0.55;;
21681;SDS011;11002;48.256;10.084;2022-09-13T12:26:45;0.40;;;0.40;;
21681;SDS011;11002;48.256;10.084;2022-09-13T12:29:19;0.65;;;0.40;;
21681;SDS011;11002;48.256;10.084;2022-09-13T12:31:55;0.30;;;0.30;;
21681;SDS011;11002;48.256;10.084;2022-09-13T12:34:27;0.60;;;0.40;;
21681;SDS011;11002;48.256;10.084;2022-09-13T12:37:13;0.30;;;0.30;;
21681;SDS011;11002;48.256;10.084;2022-09-13T12:40:15;0.52;;;0.30;;
21681;SDS011;11002;48.256;10.084;2022-09-13T12:46:14;2.10;;;0.40;;
21681;SDS011;11002;48.256;10.084;2022-09-13T12:49:22;0.40;;;0.40;;
21681;SDS011;11002;48.256;10.084;2022-09-13T12:52:15;0.47;;;0.40;;
21681;SDS011;11002;48.256;10.084;2022-09-13T12:57:52;0.55;;;0.38;;
21681;SDS011;11002;48.256;10.084;2022-09-13T13:00:29;0.50;;;0.50;;
21681;SDS011;11002;48.256;10.084;2022-09-13T13:03:02;0.77;;;0.40;;
21681;SDS011;11002;48.256;10.084;2022-09-13T13:05:37;0.32;;;0.32;;
21681;SDS011;11002;48.256;10.084;2022-09-13T13:08:21;0.50;;;0.40;;
21681;SDS011;11002;48.256;10.084;2022-09-13T13:11:00;0.28;;;0.28;;
21681;SDS011;11002;48.256;10.084;2022-09-13T13:13:32;0.52;;;0.40;;
21681;SDS011;11002;48.256;10.084;2022-09-13T13:16:19;0.55;;;0.30;;
21681;SDS011;11002;48.256;10.084;2022-09-13T13:18:49;0.32;;;0.30;;
21681;SDS011;11002;48.256;10.084;2022-09-13T13:33:17;1.08;;;0.32;;
21681;SDS011;11002;48.256;10.084;2022-09-13T13:35:47;0.57;;;0.30;;
21681;SDS011;11002;48.256;10.084;2022-09-13T13:53:45;0.52;;;0.30;;
21681;SDS011;11002;48.256;10.084;2022-09-13T13:56:19;0.47;;;0.30;;
21681;SDS011;11002;48.256;10.084;2022-09-13T13:58:54;0.30;;;0.30;;
21681;SDS011;11002;48.256;10.084;2022-09-13T14:01:26;0.20;;;0.20;;
21681;SDS011;11002;48.256;10.084;2022-09-13T14:07:08;0.70;;;0.35;;
21681;SDS011;11002;48.256;10.084;2022-09-13T14:09:43;0.90;;;0.50;;
21681;SDS011;11002;48.256;10.084;2022-09-13T14:12:24;0.52;;;0.30;;
21681;SDS011;11002;48.256;10.084;2022-09-13T14:15:16;0.52;;;0.45;;
21681;SDS011;11002;48.256;10.084;2022-09-13T14:20:57;0.47;;;0.25;;
21681;SDS011;11002;48.256;10.084;2022-09-13T14:23:29;0.22;;;0.22;;
21681;SDS011;11002;48.256;10.084;2022-09-13T14:25:58;0.30;;;0.30;;
21681;SDS011;11002;48.256;10.084;2022-09-13T14:28:26;0.40;;;0.40;;
21681;SDS011;11002;48.256;10.084;2022-09-13T14:30:55;0.43;;;0.43;;
21681;SDS011;11002;48.256;10.084;2022-09-13T14:33:26;0.38;;;0.30;;
21681;SDS011;11002;48.256;10.084;2022-09-13T14:35:57;2.85;;;0.40;;
21681;SDS011;11002;48.256;10.084;2022-09-13T14:38:27;0.25;;;0.20;;
21681;SDS011;11002;48.256;10.084;2022-09-13T14:41:01;0.40;;;0.30;;
21681;SDS011;11002;48.256;10.084;2022-09-13T14:43:37;0.43;;;0.43;;
21681;SDS011;11002;48.256;10.084;2022-09-13T14:46:06;0.40;;;0.40;;
21681;SDS011;11002;48.256;10.084;2022-09-13T14:48:39;0.30;;;0.30;;
21681;SDS011;11002;48.256;10.084;2022-09-13T14:51:13;0.30;;;0.30;;
21681;SDS011;11002;48.256;10.084;2022-09-13T14:53:45;0.30;;;0.30;;
21681;SDS011;11002;48.256;10.084;2022-09-13T14:56:15;0.40;;;0.40;;
21681;SDS011;11002;48.256;10.084;2022-09-13T14:58:48;0.30;;;0.30;;
21681;SDS011;11002;48.256;10.084;2022-09-13T15:01:20;1.00;;;0.40;;
21681;SDS011;11002;48.256;10.084;2022-09-13T15:03:54;0.30;;;0.30;;
21681;SDS011;11002;48.256;10.084;2022-09-13T15:06:25;0.32;;;0.32;;
21681;SDS011;11002;48.256;10.084;2022-09-13T15:08:55;0.40;;;0.40;;
21681;SDS011;11002;48.256;10.084;2022-09-13T15:11:26;0.40;;;0.40;;
21681;SDS011;11002;48.256;10.084;2022-09-13T15:14:17;0.30;;;0.30;;
21681;SDS011;11002;48.256;10.084;2022-09-13T15:16:52;0.40;;;0.30;;
21681;SDS011;11002;48.256;10.084;2022-09-13T15:19:28;0.38;;;0.20;;
21681;SDS011;11002;48.256;10.084;2022-09-13T15:22:08;0.65;;;0.35;;
21681;SDS011;11002;48.256;10.084;2022-09-13T15:24:42;0.30;;;0.30;;
21681;SDS011;11002;48.256;10.084;2022-09-13T15:27:21;0.40;;;0.40;;
21681;SDS011;11002;48.256;10.084;2022-09-13T15:29:52;0.55;;;0.30;;
21681;SDS011;11002;48.256;10.084;2022-09-13T15:32:22;0.65;;;0.65;;
21681;SDS011;11002;48.256;10.084;2022-09-13T15:37:29;0.50;;;0.40;;
21681;SDS011;11002;48.256;10.084;2022-09-13T15:40:04;0.30;;;0.30;;
21681;SDS011;11002;48.256;10.084;2022-09-13T15:42:39;0.22;;;0.22;;
21681;SDS011;11002;48.256;10.084;2022-09-13T15:45:10;1.52;;;0.28;;
21681;SDS011;11002;48.256;10.084;2022-09-13T15:47:38;0.35;;;0.35;;
21681;SDS011;11002;48.256;10.084;2022-09-13T15:50:08;0.35;;;0.35;;
21681;SDS011;11002;48.256;10.084;2022-09-13T15:52:49;0.30;;;0.30;;
21681;SDS011;11002;48.256;10.084;2022-09-13T15:55:16;0.20;;;0.20;;
21681;SDS011;11002;48.256;10.084;2022-09-13T15:57:44;0.43;;;0.30;;
21681;SDS011;11002;48.256;10.084;2022-09-13T16:00:15;0.30;;;0.30;;
21681;SDS011;11002;48.256;10.084;2022-09-13T16:02:44;0.30;;;0.30;;
21681;SDS011;11002;48.256;10.084;2022-09-13T16:05:13;0.20;;;0.20;;
21681;SDS011;11002;48.256;10.084;2022-09-13T16:07:41;0.30;;;0.30;;
21681;SDS011;11002;48.256;10.084;2022-09-13T16:10:12;0.30;;;0.30;;
21681;SDS011;11002;48.256;10.084;2022-09-13T16:12:41;0.30;;;0.30;;